Time;durP1;ratioP1;P1;durP2;ratioP2;P2;SDS_P1;SDS_P2;PMS_P1;PMS_P2;Temp;Humidity;BMP_temperature;BMP_pressure;BME280_temperature;BME280_humidity;BME280_pressure;Samples;Min_cycle;Max_cycle;Signal;HPM_P1;HPM_P2
2023/01/23 00:00:38;;;;;;;8.35;5.45;;;-2.90;99.90;;;;;;4972947;28;20051;-92
2023/01/23 00:03:05;;;;;;;8.40;6.35;;;-2.90;99.90;;;;;;4956369;28;20074;-93
2023/01/23 00:05:32;;;;;;;9.15;5.97;;;-2.90;99.90;;;;;;4969883;28;20516;-92
2023/01/23 00:07:59;;;;;;;9.57;6.25;;;-2.80;99.90;;;;;;4954868;28;20074;-91
2023/01/23 00:10:26;;;;;;;8.57;5.40;;;-2.80;99.90;;;;;;4970735;28;20086;-92
2023/01/23 00:12:55;;;;;;;8.32;5.72;;;-2.90;99.90;;;;;;4954275;28;20053;-92
2023/01/23 00:15:22;;;;;;;9.23;5.47;;;-2.80;99.90;;;;;;4969430;28;20054;-92
2023/01/23 00:17:49;;;;;;;7.20;4.55;;;-2.90;99.90;;;;;;4988301;28;20848;-92
2023/01/23 00:20:16;;;;;;;9.73;6.70;;;-2.90;99.90;;;;;;4987517;28;20558;-92
2023/01/23 00:22:43;;;;;;;8.93;5.47;;;-2.90;99.90;;;;;;4955945;28;20057;-92
2023/01/23 00:25:10;;;;;;;9.55;5.78;;;-2.90;99.90;;;;;;4957259;28;20050;-92
2023/01/23 00:27:37;;;;;;;9.43;5.88;;;-2.90;99.90;;;;;;4987987;28;20406;-93
2023/01/23 00:30:05;;;;;;;8.20;5.80;;;-2.90;99.90;;;;;;4988816;28;20057;-92
2023/01/23 00:32:32;;;;;;;7.65;5.75;;;-3.00;99.90;;;;;;4986654;28;20597;-93
2023/01/23 00:34:59;;;;;;;8.25;5.75;;;-2.90;99.90;;;;;;4969985;28;20078;-93
2023/01/23 00:37:26;;;;;;;9.60;5.82;;;-2.90;99.90;;;;;;4955614;28;20042;-92
2023/01/23 00:39:53;;;;;;;8.02;5.45;;;-2.90;99.90;;;;;;4956885;28;20047;-93
2023/01/23 00:42:19;;;;;;;8.57;6.13;;;-3.00;99.90;;;;;;4972532;28;20110;-93
2023/01/23 00:44:46;;;;;;;8.93;5.57;;;-3.00;99.90;;;;;;4954448;28;20058;-93
2023/01/23 00:47:13;;;;;;;9.23;5.70;;;-3.00;99.90;;;;;;4956038;28;20492;-92
2023/01/23 00:49:40;;;;;;;10.35;6.10;;;-3.00;99.90;;;;;;5002942;28;20485;-93
2023/01/23 00:52:07;;;;;;;9.40;6.28;;;-3.00;99.90;;;;;;4971162;28;20053;-94
2023/01/23 00:54:34;;;;;;;8.55;5.80;;;-3.00;99.90;;;;;;4985125;28;20434;-93
2023/01/23 00:57:01;;;;;;;9.32;6.88;;;-3.00;99.90;;;;;;4986397;28;20462;-93
2023/01/23 00:59:28;;;;;;;12.15;7.18;;;-3.10;99.90;;;;;;5002505;28;20065;-92
2023/01/23 01:01:55;;;;;;;10.88;6.63;;;-3.10;99.90;;;;;;4990747;28;20568;-93
2023/01/23 01:04:22;;;;;;;9.02;6.43;;;-3.10;99.90;;;;;;4993853;28;20101;-91
2023/01/23 01:06:49;;;;;;;11.43;7.60;;;-3.10;99.90;;;;;;5014820;28;20546;-93
2023/01/23 01:09:16;;;;;;;10.38;7.32;;;-3.20;99.90;;;;;;4975399;28;20061;-92
2023/01/23 01:11:43;;;;;;;11.52;7.22;;;-3.20;99.90;;;;;;4957918;28;20079;-92
2023/01/23 01:14:12;;;;;;;10.20;7.60;;;-3.20;99.90;;;;;;4991406;28;20058;-92
2023/01/23 01:16:44;;;;;;;13.25;7.82;;;-3.20;99.90;;;;;;4966046;28;20047;-92
2023/01/23 01:19:14;;;;;;;11.57;8.10;;;-3.20;99.90;;;;;;4949596;28;20074;-91
2023/01/23 01:21:42;;;;;;;10.88;7.57;;;-3.20;99.90;;;;;;4963744;28;20453;-92
2023/01/23 01:24:08;;;;;;;10.63;6.88;;;-3.30;99.90;;;;;;4946948;28;20385;-93
2023/01/23 01:26:35;;;;;;;10.35;7.03;;;-3.30;99.90;;;;;;4986880;28;20081;-93
2023/01/23 01:29:02;;;;;;;9.98;6.60;;;-3.30;99.90;;;;;;4986506;28;20058;-92
2023/01/23 01:31:29;;;;;;;13.38;7.00;;;-3.30;99.90;;;;;;4985678;28;20086;-92
2023/01/23 01:33:56;;;;;;;8.52;5.90;;;-3.30;99.90;;;;;;4969236;28;20438;-92
2023/01/23 01:36:24;;;;;;;13.70;7.43;;;-3.30;99.90;;;;;;4984931;28;20113;-92
2023/01/23 01:38:51;;;;;;;13.30;7.68;;;-3.30;99.90;;;;;;4973520;28;20070;-92
2023/01/23 01:41:18;;;;;;;11.20;7.28;;;-3.30;99.90;;;;;;4973572;28;20054;-92
2023/01/23 01:43:46;;;;;;;10.70;6.72;;;-3.40;99.90;;;;;;4988123;28;20627;-92
2023/01/23 01:46:20;;;;;;;9.00;6.65;;;-3.40;99.90;;;;;;5002456;28;20055;-92
2023/01/23 01:49:04;;;;;;;9.57;6.82;;;-3.40;99.90;;;;;;4971523;28;20054;-92
2023/01/23 01:52:10;;;;;;;8.93;6.63;;;-3.40;99.90;;;;;;4972088;28;20146;-92
2023/01/23 01:54:40;;;;;;;10.15;6.15;;;-3.40;99.90;;;;;;4971857;28;20070;-91
2023/01/23 01:57:29;;;;;;;8.90;6.28;;;-3.40;99.90;;;;;;4970843;28;20054;-91
2023/01/23 02:00:07;;;;;;;6.75;4.97;;;-3.40;99.90;;;;;;4970453;28;20054;-92
2023/01/23 02:02:36;;;;;;;7.90;5.60;;;-3.40;99.90;;;;;;4938912;28;20059;-92
2023/01/23 02:05:24;;;;;;;8.25;5.78;;;-3.40;99.90;;;;;;4954515;28;20517;-92
2023/01/23 02:08:00;;;;;;;8.48;5.15;;;-3.40;99.90;;;;;;4970103;28;20129;-90
2023/01/23 02:10:27;;;;;;;6.82;4.65;;;-3.40;99.90;;;;;;4970990;28;20055;-93
2023/01/23 02:12:53;;;;;;;7.60;4.57;;;-3.40;99.90;;;;;;4953981;28;20105;-92
2023/01/23 02:15:21;;;;;;;7.13;4.60;;;-3.40;99.90;;;;;;4953889;28;20553;-93
2023/01/23 02:17:49;;;;;;;8.57;5.05;;;-3.50;99.90;;;;;;4953453;28;20047;-92
2023/01/23 02:20:28;;;;;;;8.63;5.22;;;-3.50;99.90;;;;;;4953954;28;20065;-93
2023/01/23 02:23:04;;;;;;;7.75;4.75;;;-3.50;99.90;;;;;;4954752;28;20059;-93
2023/01/23 02:25:39;;;;;;;7.10;4.88;;;-3.50;99.90;;;;;;4970544;28;20050;-92
2023/01/23 02:28:08;;;;;;;8.45;5.20;;;-3.60;99.90;;;;;;4987333;28;20051;-91
2023/01/23 02:30:36;;;;;;;7.68;4.90;;;-3.60;99.90;;;;;;4988019;28;20054;-93
2023/01/23 02:33:30;;;;;;;9.65;5.65;;;-3.60;99.90;;;;;;4989278;28;20078;-92
2023/01/23 02:35:58;;;;;;;6.25;4.72;;;-3.60;99.90;;;;;;4984912;28;20480;-93
2023/01/23 02:38:26;;;;;;;7.88;4.97;;;-3.60;99.90;;;;;;4970535;28;20047;-93
2023/01/23 02:40:53;;;;;;;8.98;5.15;;;-3.60;99.90;;;;;;4954557;29;20086;-92
2023/01/23 02:43:21;;;;;;;10.35;6.05;;;-3.60;99.90;;;;;;4963236;28;20055;-93
2023/01/23 02:45:48;;;;;;;8.40;5.90;;;-3.60;99.90;;;;;;5005791;28;20090;-93
2023/01/23 02:48:15;;;;;;;7.07;4.55;;;-3.70;99.90;;;;;;4988680;28;20203;-93
2023/01/23 02:50:45;;;;;;;7.47;5.00;;;-3.70;99.90;;;;;;4988937;28;20055;-93
2023/01/23 02:53:12;;;;;;;9.32;5.50;;;-3.70;99.90;;;;;;5004666;28;20475;-92
2023/01/23 02:55:42;;;;;;;10.73;6.78;;;-3.70;99.90;;;;;;4957414;28;20086;-92
2023/01/23 03:00:54;;;;;;;9.55;7.05;;;-3.60;99.90;;;;;;4986990;28;20078;-92
2023/01/23 03:03:21;;;;;;;9.95;6.65;;;-3.60;99.90;;;;;;5004922;28;20059;-92
2023/01/23 03:05:49;;;;;;;10.15;6.20;;;-3.60;99.90;;;;;;4973391;28;20058;-92
2023/01/23 03:08:15;;;;;;;10.18;6.03;;;-3.60;99.90;;;;;;4957561;28;20625;-92
2023/01/23 03:10:42;;;;;;;9.13;6.75;;;-3.60;99.90;;;;;;4957111;28;20050;-92
2023/01/23 03:13:10;;;;;;;9.43;6.40;;;-3.60;99.90;;;;;;4956318;28;20050;-93
2023/01/23 03:15:38;;;;;;;8.68;6.47;;;-3.60;99.90;;;;;;4956990;28;20145;-92
2023/01/23 03:18:05;;;;;;;10.38;6.85;;;-3.60;99.90;;;;;;5004669;28;20105;-92
2023/01/23 03:20:39;;;;;;;9.50;6.25;;;-3.60;99.90;;;;;;4988520;28;20126;-92
2023/01/23 03:23:06;;;;;;;10.52;6.90;;;-3.70;99.90;;;;;;4989060;28;20141;-93
2023/01/23 03:25:33;;;;;;;9.77;5.93;;;-3.70;99.90;;;;;;4957903;28;20138;-91
2023/01/23 03:28:01;;;;;;;10.15;6.75;;;-3.60;99.90;;;;;;4989364;28;20058;-92
2023/01/23 03:30:28;;;;;;;10.48;6.50;;;-3.60;99.90;;;;;;5004793;28;20146;-92
2023/01/23 03:32:55;;;;;;;7.47;6.10;;;-3.60;99.90;;;;;;4972802;28;20059;-92
2023/01/23 03:35:22;;;;;;;9.02;6.50;;;-3.60;99.90;;;;;;4978329;28;20118;-92
2023/01/23 03:37:49;;;;;;;10.25;6.00;;;-3.60;99.90;;;;;;4986219;28;20118;-93
2023/01/23 03:43:03;;;;;;;10.25;5.68;;;-3.60;99.90;;;;;;4960186;28;20042;-92
2023/01/23 03:45:30;;;;;;;7.30;5.43;;;-3.60;99.90;;;;;;4957370;28;20535;-93
2023/01/23 03:47:57;;;;;;;7.03;5.65;;;-3.60;99.90;;;;;;4988356;28;20078;-93
2023/01/23 03:50:24;;;;;;;8.93;5.25;;;-3.50;99.90;;;;;;4988647;28;20086;-93
2023/01/23 03:52:51;;;;;;;7.43;5.30;;;-3.60;99.90;;;;;;4988611;28;20047;-92
2023/01/23 03:55:18;;;;;;;6.60;5.43;;;-3.50;99.90;;;;;;5005175;28;20090;-93
2023/01/23 03:57:45;;;;;;;8.10;5.07;;;-3.50;99.90;;;;;;4954200;28;20410;-92
2023/01/23 04:00:15;;;;;;;6.57;4.68;;;-3.50;99.90;;;;;;4984760;28;20047;-93
2023/01/23 04:02:42;;;;;;;5.93;4.15;;;-3.50;99.90;;;;;;4956592;28;20051;-93
2023/01/23 04:05:09;;;;;;;6.82;4.03;;;-3.50;99.90;;;;;;5004131;28;20058;-93
2023/01/23 04:07:36;;;;;;;5.22;3.55;;;-3.40;99.90;;;;;;4988160;28;20043;-93
2023/01/23 04:10:03;;;;;;;4.70;3.60;;;-3.50;99.90;;;;;;4987921;28;20046;-93
2023/01/23 04:12:30;;;;;;;6.30;4.10;;;-3.50;99.90;;;;;;4987961;28;20077;-93
2023/01/23 04:14:57;;;;;;;5.00;3.53;;;-3.50;99.90;;;;;;5004035;28;20050;-93
2023/01/23 04:17:25;;;;;;;6.30;4.25;;;-3.60;99.90;;;;;;5003995;28;20386;-93
2023/01/23 04:19:51;;;;;;;5.35;3.47;;;-3.50;99.90;;;;;;5002774;28;20058;-92
2023/01/23 04:22:19;;;;;;;4.47;3.22;;;-3.60;99.90;;;;;;4987972;28;20054;-93
2023/01/23 04:24:46;;;;;;;4.75;3.15;;;-3.60;99.90;;;;;;5003684;28;20051;-92
2023/01/23 04:27:14;;;;;;;5.57;3.63;;;-3.60;99.90;;;;;;4955516;28;20561;-93
2023/01/23 04:29:41;;;;;;;4.72;3.10;;;-3.60;99.90;;;;;;5004049;28;20050;-93
2023/01/23 04:32:08;;;;;;;4.15;3.13;;;-3.70;99.90;;;;;;4987203;28;20118;-93
2023/01/23 04:34:35;;;;;;;5.30;3.72;;;-3.80;99.90;;;;;;4966740;28;20461;-93
2023/01/23 04:37:02;;;;;;;5.75;3.13;;;-3.70;99.90;;;;;;4955215;28;20057;-93
2023/01/23 04:39:30;;;;;;;5.43;3.65;;;-3.70;99.90;;;;;;5003296;28;20074;-93
2023/01/23 04:41:57;;;;;;;4.93;3.50;;;-3.60;99.90;;;;;;4987244;28;20085;-93
2023/01/23 04:44:25;;;;;;;6.22;3.65;;;-3.50;99.90;;;;;;4987006;28;20054;-92
2023/01/23 04:46:53;;;;;;;5.40;3.70;;;-3.50;99.90;;;;;;4955336;28;20054;-92
2023/01/23 04:49:21;;;;;;;6.15;3.97;;;-3.50;99.90;;;;;;4970324;28;20570;-92
2023/01/23 04:51:48;;;;;;;5.28;3.63;;;-3.40;99.90;;;;;;4971870;28;20047;-92
2023/01/23 04:54:16;;;;;;;7.47;3.90;;;-3.30;99.90;;;;;;4939599;28;20133;-92
2023/01/23 04:56:43;;;;;;;5.72;4.40;;;-3.30;99.90;;;;;;4955492;28;20054;-92
2023/01/23 04:59:10;;;;;;;5.80;4.50;;;-3.30;99.90;;;;;;4939978;28;20078;-92
2023/01/23 05:01:37;;;;;;;5.28;3.95;;;-3.20;99.90;;;;;;4955724;28;20687;-92
2023/01/23 05:04:04;;;;;;;6.25;4.10;;;-3.30;99.90;;;;;;4955416;28;20070;-92
2023/01/23 05:06:31;;;;;;;6.22;4.35;;;-3.30;99.90;;;;;;4971650;28;20145;-93
2023/01/23 05:08:58;;;;;;;5.78;4.20;;;-3.30;99.90;;;;;;4956019;28;20098;-93
2023/01/23 05:11:25;;;;;;;6.53;4.72;;;-3.20;99.90;;;;;;4972419;28;20492;-92
2023/01/23 05:13:52;;;;;;;4.72;3.63;;;-3.30;99.90;;;;;;4976566;28;20133;-86
2023/01/23 05:16:18;;;;;;;7.65;4.72;;;-3.30;99.90;;;;;;5006119;28;20086;-88
2023/01/23 05:18:45;;;;;;;9.13;4.60;;;-3.30;99.90;;;;;;5007649;28;20054;-92
2023/01/23 05:21:12;;;;;;;8.52;5.55;;;-3.30;99.90;;;;;;4991629;28;20094;-92
2023/01/23 05:23:39;;;;;;;6.53;4.65;;;-3.30;99.90;;;;;;4992089;28;20380;-91
2023/01/23 05:26:06;;;;;;;5.90;4.68;;;-3.30;99.90;;;;;;4980268;28;20035;-94
2023/01/23 05:28:33;;;;;;;7.50;6.03;;;-3.30;99.90;;;;;;5005442;28;20043;-94
2023/01/23 05:31:00;;;;;;;7.00;4.72;;;-3.30;99.90;;;;;;4995367;28;20057;-94
2023/01/23 05:33:27;;;;;;;6.88;4.93;;;-3.30;99.90;;;;;;4994257;28;20441;-94
2023/01/23 05:35:59;;;;;;;6.68;4.78;;;-3.40;99.90;;;;;;5000455;28;20105;-96
2023/01/23 05:38:26;;;;;;;7.50;4.82;;;-3.40;99.90;;;;;;5022397;28;20067;-94
2023/01/23 05:40:55;;;;;;;5.90;4.45;;;-3.40;99.90;;;;;;4957301;28;20086;-94
2023/01/23 05:43:22;;;;;;;8.27;5.40;;;-3.50;99.90;;;;;;4987278;28;20054;-94
2023/01/23 05:45:49;;;;;;;7.10;4.53;;;-3.50;99.90;;;;;;4976838;28;20062;-92
2023/01/23 05:48:16;;;;;;;7.47;4.68;;;-3.50;99.90;;;;;;4979019;28;20074;-94
2023/01/23 05:50:46;;;;;;;5.93;4.50;;;-3.50;99.90;;;;;;4981130;28;20614;-95
2023/01/23 05:53:13;;;;;;;6.60;4.88;;;-3.50;99.90;;;;;;4987516;28;20054;-94
2023/01/23 05:55:40;;;;;;;8.15;4.93;;;-3.60;99.90;;;;;;4958931;28;20080;-96
2023/01/23 05:58:07;;;;;;;7.40;4.65;;;-3.50;99.90;;;;;;5006883;28;20054;-94
2023/01/23 06:00:34;;;;;;;6.03;4.53;;;-3.50;99.90;;;;;;4991149;28;20047;-95
2023/01/23 06:03:01;;;;;;;6.95;4.20;;;-3.50;99.90;;;;;;4977856;28;20152;-76
2023/01/23 06:05:28;;;;;;;6.72;4.63;;;-3.60;99.90;;;;;;4995146;28;20062;-89
2023/01/23 06:07:55;;;;;;;5.43;4.13;;;-3.60;99.90;;;;;;4983360;28;20055;-90
2023/01/23 06:10:22;;;;;;;6.97;4.13;;;-3.60;99.90;;;;;;4997526;28;20047;-89
2023/01/23 06:12:49;;;;;;;6.00;4.18;;;-3.60;99.90;;;;;;4981221;28;20051;-89
2023/01/23 06:15:15;;;;;;;6.32;4.22;;;-3.70;99.90;;;;;;4996942;28;20051;-90
2023/01/23 06:17:42;;;;;;;7.22;4.45;;;-3.70;99.90;;;;;;4982215;28;20565;-90
2023/01/23 06:20:11;;;;;;;5.45;3.53;;;-3.70;99.90;;;;;;4985565;28;20139;-89
2023/01/23 06:22:39;;;;;;;6.13;4.22;;;-3.60;99.90;;;;;;4963075;28;20506;-91
2023/01/23 06:25:06;;;;;;;7.72;5.07;;;-3.60;99.90;;;;;;4970694;28;20047;-90
2023/01/23 06:27:33;;;;;;;7.22;3.90;;;-3.70;99.90;;;;;;4968673;28;20118;-90
2023/01/23 06:30:00;;;;;;;5.18;3.92;;;-3.70;99.90;;;;;;4975767;28;20054;-91
2023/01/23 06:32:27;;;;;;;5.25;3.90;;;-3.60;99.90;;;;;;4991599;28;20427;-91
2023/01/23 06:34:54;;;;;;;6.35;4.03;;;-3.60;99.90;;;;;;4991632;28;20419;-91
2023/01/23 06:37:22;;;;;;;4.97;4.45;;;-3.60;99.90;;;;;;4969177;28;20054;-89
2023/01/23 06:39:48;;;;;;;5.88;4.55;;;-3.50;99.90;;;;;;4967116;28;20038;-88
2023/01/23 06:42:16;;;;;;;5.63;3.55;;;-3.50;99.90;;;;;;4988733;28;20609;-95
2023/01/23 06:44:42;;;;;;;6.28;4.40;;;-3.50;99.90;;;;;;4994952;28;20129;-91
2023/01/23 06:47:09;;;;;;;5.72;3.92;;;-3.60;99.90;;;;;;4992223;28;20061;-90
2023/01/23 06:49:37;;;;;;;6.97;4.72;;;-3.60;99.90;;;;;;4979518;28;20055;-90
2023/01/23 06:52:04;;;;;;;7.03;5.20;;;-3.50;99.90;;;;;;4971030;28;20074;-88
2023/01/23 06:55:02;;;;;;;6.07;4.45;;;-3.50;99.90;;;;;;4950404;28;20054;-89
2023/01/23 06:57:30;;;;;;;5.75;3.97;;;-3.60;99.90;;;;;;4949340;28;20138;-92
2023/01/23 06:59:57;;;;;;;6.88;4.70;;;-3.70;99.90;;;;;;4964144;28;20133;-88
2023/01/23 07:02:24;;;;;;;6.45;4.20;;;-3.70;99.90;;;;;;4981129;28;20158;-89
2023/01/23 07:04:52;;;;;;;8.38;4.55;;;-3.70;99.90;;;;;;4956406;28;20083;-77
2023/01/23 07:07:18;;;;;;;8.10;4.82;;;-3.70;99.90;;;;;;4929993;29;20109;-89
2023/01/23 07:09:46;;;;;;;7.07;4.35;;;-3.80;99.90;;;;;;4969983;28;20596;-88
2023/01/23 07:12:13;;;;;;;6.03;4.53;;;-3.80;99.90;;;;;;4943055;28;21221;-91
2023/01/23 07:14:40;;;;;;;7.05;4.38;;;-3.80;99.90;;;;;;4982488;28;20051;-89
2023/01/23 07:17:07;;;;;;;5.65;3.75;;;-3.80;99.90;;;;;;4958983;28;20058;-88
2023/01/23 07:19:34;;;;;;;5.82;4.28;;;-3.90;99.90;;;;;;4981475;28;20051;-88
2023/01/23 07:22:01;;;;;;;4.88;3.60;;;-3.90;99.90;;;;;;4964517;28;20059;-87
2023/01/23 07:24:30;;;;;;;5.53;4.00;;;-3.90;99.90;;;;;;4927939;29;20130;-88
2023/01/23 07:26:58;;;;;;;7.15;4.45;;;-3.90;99.90;;;;;;4949598;28;20054;-91
2023/01/23 07:29:25;;;;;;;6.13;3.78;;;-3.90;99.90;;;;;;4981371;28;20051;-90
2023/01/23 07:31:52;;;;;;;5.72;4.15;;;-4.00;99.90;;;;;;4974899;28;20055;-91
2023/01/23 07:34:20;;;;;;;6.25;3.70;;;-4.00;99.90;;;;;;4954568;28;20047;-90
2023/01/23 07:36:46;;;;;;;7.15;4.05;;;-4.00;99.90;;;;;;4923531;29;20070;-90
2023/01/23 07:39:14;;;;;;;5.28;3.70;;;-4.00;99.90;;;;;;4934249;29;20146;-90
2023/01/23 07:41:41;;;;;;;4.72;3.40;;;-4.00;99.90;;;;;;4937649;29;20058;-89
2023/01/23 07:44:16;;;;;;;4.00;2.90;;;-4.00;99.90;;;;;;4949746;29;20051;-90
2023/01/23 07:46:43;;;;;;;3.65;2.55;;;-4.00;99.90;;;;;;4950263;28;20079;-91
2023/01/23 07:49:11;;;;;;;3.83;2.60;;;-4.00;99.90;;;;;;4965105;28;20061;-90
2023/01/23 07:51:38;;;;;;;4.68;3.40;;;-4.00;99.90;;;;;;4950425;28;20055;-90
2023/01/23 07:54:06;;;;;;;5.63;3.70;;;-3.90;99.90;;;;;;4984526;28;20858;-91
2023/01/23 07:56:32;;;;;;;5.85;3.58;;;-3.80;99.90;;;;;;4952958;28;20806;-90
2023/01/23 07:58:59;;;;;;;4.43;3.30;;;-3.80;99.90;;;;;;4953877;28;20106;-89
2023/01/23 08:01:26;;;;;;;5.20;3.58;;;-3.80;99.90;;;;;;4952656;29;20065;-90
2023/01/23 08:03:53;;;;;;;5.00;3.00;;;-3.70;99.90;;;;;;4960831;28;20066;-89
2023/01/23 08:06:20;;;;;;;5.38;3.47;;;-3.80;99.90;;;;;;4949753;29;20051;-89
2023/01/23 08:08:48;;;;;;;5.70;3.30;;;-3.70;99.90;;;;;;4953211;29;20047;-89
2023/01/23 08:11:15;;;;;;;4.82;3.13;;;-3.80;99.90;;;;;;4967158;28;20047;-89
2023/01/23 08:13:42;;;;;;;3.83;2.58;;;-3.80;99.90;;;;;;4967631;28;20062;-89
2023/01/23 08:16:09;;;;;;;4.03;2.75;;;-3.80;99.90;;;;;;4969361;28;20082;-89
2023/01/23 08:18:39;;;;;;;3.53;2.10;;;-3.70;99.90;;;;;;4967444;28;20126;-89
2023/01/23 08:21:06;;;;;;;3.63;2.47;;;-3.70;99.90;;;;;;4951974;29;20475;-88
2023/01/23 08:23:33;;;;;;;3.95;2.60;;;-3.70;99.90;;;;;;4983555;28;20051;-89
2023/01/23 08:26:01;;;;;;;4.97;3.20;;;-3.60;99.90;;;;;;4966719;28;20047;-89
2023/01/23 08:28:28;;;;;;;3.90;3.15;;;-3.60;99.90;;;;;;4965543;28;20047;-88
2023/01/23 08:30:59;;;;;;;4.70;2.63;;;-3.60;99.90;;;;;;4964418;28;20067;-88
2023/01/23 08:33:33;;;;;;;3.08;2.45;;;-3.60;99.90;;;;;;4966676;28;20106;-89
2023/01/23 08:36:01;;;;;;;3.35;2.35;;;-3.50;99.90;;;;;;4951037;29;20593;-88
2023/01/23 08:38:28;;;;;;;4.18;2.85;;;-3.50;99.90;;;;;;4986513;28;20082;-88
2023/01/23 08:40:57;;;;;;;4.18;2.95;;;-3.40;99.90;;;;;;4984520;28;20051;-87
2023/01/23 08:43:24;;;;;;;4.95;3.25;;;-3.40;99.90;;;;;;4969468;28;20047;-88
2023/01/23 08:45:55;;;;;;;5.80;3.65;;;-3.40;99.90;;;;;;4991574;28;20057;-89
2023/01/23 08:48:23;;;;;;;4.95;3.10;;;-3.30;99.90;;;;;;4943701;29;20048;-90
2023/01/23 08:50:50;;;;;;;5.18;3.33;;;-3.30;99.90;;;;;;4940201;28;20057;-89
2023/01/23 08:53:17;;;;;;;5.00;3.03;;;-3.20;99.90;;;;;;4944849;29;20497;-89
2023/01/23 08:55:44;;;;;;;5.50;3.20;;;-3.20;99.90;;;;;;4939994;29;20134;-90
2023/01/23 08:58:13;;;;;;;5.40;3.42;;;-3.20;99.90;;;;;;4938716;29;20051;-86
2023/01/23 09:00:40;;;;;;;4.15;3.22;;;-3.10;99.90;;;;;;4970494;28;20047;-88
2023/01/23 09:03:08;;;;;;;5.25;3.55;;;-3.10;99.90;;;;;;4968631;28;20047;-88
2023/01/23 09:05:37;;;;;;;4.80;3.38;;;-3.10;99.90;;;;;;4983966;28;20212;-89
2023/01/23 09:08:03;;;;;;;5.00;3.05;;;-3.00;99.90;;;;;;4955658;29;20057;-88
2023/01/23 09:10:30;;;;;;;4.57;3.25;;;-2.90;99.90;;;;;;4953795;28;20098;-90
2023/01/23 09:12:57;;;;;;;3.78;2.88;;;-2.90;99.90;;;;;;4967000;28;20134;-87
2023/01/23 09:15:24;;;;;;;4.03;2.70;;;-2.90;99.90;;;;;;4934387;29;20079;-86
2023/01/23 09:17:51;;;;;;;3.83;2.80;;;-2.80;99.90;;;;;;4974618;28;20062;-87
2023/01/23 09:20:18;;;;;;;3.80;2.47;;;-2.80;99.90;;;;;;4947313;28;20059;-86
2023/01/23 09:22:46;;;;;;;4.10;2.90;;;-2.70;99.90;;;;;;4949663;29;20125;-86
2023/01/23 09:25:13;;;;;;;4.13;2.72;;;-2.70;99.90;;;;;;4959460;28;20491;-86
2023/01/23 09:27:40;;;;;;;3.70;2.55;;;-2.70;99.90;;;;;;4978308;28;20058;-85
2023/01/23 09:30:07;;;;;;;4.05;2.97;;;-2.60;99.90;;;;;;4966305;28;20051;-86
2023/01/23 09:32:34;;;;;;;3.80;2.70;;;-2.50;99.90;;;;;;4936076;29;20062;-85
2023/01/23 09:35:01;;;;;;;3.65;2.78;;;-2.50;99.90;;;;;;4937243;29;20059;-85
2023/01/23 09:40:25;;;;;;;2.55;1.92;;;-2.40;99.90;;;;;;4954637;28;20051;-85
2023/01/23 09:42:53;;;;;;;2.95;2.03;;;-2.20;99.90;;;;;;4937813;29;20074;-85
2023/01/23 09:45:21;;;;;;;3.40;2.28;;;-2.10;99.90;;;;;;4954707;29;20461;-85
2023/01/23 09:48:10;;;;;;;3.08;2.55;;;-2.00;99.90;;;;;;4937694;29;20059;-84
2023/01/23 09:50:38;;;;;;;4.50;2.60;;;-1.90;99.90;;;;;;4984632;28;20137;-84
2023/01/23 09:53:13;;;;;;;2.60;2.10;;;-1.80;99.90;;;;;;4952745;29;20055;-86
2023/01/23 09:56:02;;;;;;;4.85;3.20;;;-1.70;99.90;;;;;;4936235;28;20055;-86
2023/01/23 09:58:52;;;;;;;4.78;2.65;;;-1.60;99.90;;;;;;4949567;28;20047;-86
2023/01/23 10:01:19;;;;;;;3.40;2.55;;;-1.40;99.90;;;;;;4934766;29;20138;-86
2023/01/23 10:03:46;;;;;;;4.47;3.25;;;-1.30;99.90;;;;;;4935669;29;20125;-86
2023/01/23 10:06:16;;;;;;;5.65;3.20;;;-1.20;99.90;;;;;;4936966;29;20480;-87
2023/01/23 10:08:48;;;;;;;5.60;3.45;;;-1.10;99.90;;;;;;4952631;29;20093;-86
2023/01/23 10:11:33;;;;;;;4.53;3.23;;;-1.00;99.90;;;;;;4952785;29;20059;-86
2023/01/23 10:14:25;;;;;;;4.75;3.15;;;-0.80;99.90;;;;;;4953676;29;20300;-86
2023/01/23 10:17:21;;;;;;;3.88;3.30;;;-0.70;99.90;;;;;;4953999;29;20059;-86
2023/01/23 10:20:09;;;;;;;4.72;3.17;;;-0.60;99.90;;;;;;4949509;28;20878;-86
2023/01/23 10:22:38;;;;;;;5.00;3.35;;;-0.50;99.90;;;;;;4950393;29;20095;-86
2023/01/23 10:25:16;;;;;;;3.78;3.15;;;-0.40;99.90;;;;;;4949995;28;20790;-85
2023/01/23 10:27:44;;;;;;;5.35;3.72;;;-0.30;99.90;;;;;;4965543;28;20066;-85
2023/01/23 10:30:27;;;;;;;5.35;3.85;;;-0.20;99.90;;;;;;4926046;29;20447;-86
2023/01/23 10:33:08;;;;;;;6.38;4.38;;;-0.10;99.90;;;;;;4966453;28;20062;-86
2023/01/23 10:35:43;;;;;;;5.68;4.35;;;0.10;99.90;;;;;;4961456;28;20043;-86
2023/01/23 10:38:32;;;;;;;6.97;4.78;;;0.20;99.90;;;;;;4967148;28;20071;-86
2023/01/23 10:41:14;;;;;;;5.50;4.78;;;0.40;99.90;;;;;;4950189;29;20512;-86
2023/01/23 10:43:41;;;;;;;7.97;5.45;;;0.50;99.90;;;;;;4935338;29;20385;-85
2023/01/23 10:46:21;;;;;;;7.45;6.07;;;0.60;99.90;;;;;;4950901;29;20083;-86
2023/01/23 10:48:48;;;;;;;9.10;6.40;;;0.70;99.90;;;;;;4983778;28;20431;-86
2023/01/23 10:51:29;;;;;;;9.18;7.40;;;0.90;99.90;;;;;;4950890;29;20440;-85
2023/01/23 10:54:08;;;;;;;10.23;6.78;;;0.90;99.90;;;;;;4952761;28;20055;-86
2023/01/23 10:56:45;;;;;;;11.02;8.50;;;1.10;99.90;;;;;;4951034;28;20058;-84
2023/01/23 10:59:43;;;;;;;9.07;7.53;;;1.20;99.90;;;;;;4982038;28;20495;-84
2023/01/23 11:02:13;;;;;;;10.43;8.15;;;1.30;99.90;;;;;;4948197;28;20051;-85
2023/01/23 11:04:41;;;;;;;11.95;8.20;;;1.40;99.90;;;;;;4950895;29;20047;-86
2023/01/23 11:07:24;;;;;;;9.98;7.13;;;1.50;99.90;;;;;;4965417;28;20043;-85
2023/01/23 11:09:55;;;;;;;9.80;7.77;;;1.50;99.90;;;;;;4948975;28;20062;-85
2023/01/23 11:12:26;;;;;;;8.10;6.80;;;1.60;99.90;;;;;;4951108;28;20058;-84
2023/01/23 11:15:23;;;;;;;8.77;5.90;;;1.60;99.90;;;;;;4962486;28;20051;-84
2023/01/23 11:17:51;;;;;;;8.88;6.43;;;1.70;99.90;;;;;;4962477;28;20577;-85
2023/01/23 11:20:30;;;;;;;7.90;5.70;;;1.70;99.90;;;;;;4932817;29;20059;-84
2023/01/23 11:23:04;;;;;;;8.35;6.28;;;1.80;99.90;;;;;;4931632;29;20315;-85
2023/01/23 11:25:32;;;;;;;6.38;5.30;;;1.90;99.90;;;;;;4977350;28;20053;-83
2023/01/23 11:28:01;;;;;;;6.15;4.80;;;2.10;99.90;;;;;;4961223;28;20051;-84
2023/01/23 11:30:38;;;;;;;5.65;4.78;;;2.20;99.90;;;;;;4964027;28;20051;-84
2023/01/23 11:33:29;;;;;;;6.72;5.50;;;2.40;99.90;;;;;;4978852;28;20059;-84
2023/01/23 11:36:16;;;;;;;6.32;4.93;;;2.40;99.90;;;;;;4972425;28;20048;-83
2023/01/23 11:38:58;;;;;;;5.88;4.45;;;2.60;99.90;;;;;;4946766;29;20073;-84
2023/01/23 11:41:29;;;;;;;4.95;4.45;;;2.70;99.90;;;;;;4949352;29;20134;-83
2023/01/23 11:43:56;;;;;;;6.97;5.13;;;2.80;99.90;;;;;;4960801;28;20062;-83
2023/01/23 11:46:23;;;;;;;5.13;4.40;;;2.80;99.90;;;;;;4960650;28;20052;-84
2023/01/23 11:49:16;;;;;;;7.22;4.95;;;3.00;99.90;;;;;;4945067;29;20055;-85
2023/01/23 11:51:46;;;;;;;5.78;3.90;;;3.10;99.90;;;;;;4945642;28;20061;-85
2023/01/23 11:54:32;;;;;;;6.57;4.40;;;3.20;99.90;;;;;;4979274;28;20087;-84
2023/01/23 11:57:32;;;;;;;6.07;4.30;;;3.30;99.90;;;;;;4949667;29;20118;-85
2023/01/23 12:00:15;;;;;;;5.70;4.63;;;3.30;99.90;;;;;;4926709;28;20073;-85
2023/01/23 12:02:57;;;;;;;6.60;5.32;;;3.40;99.90;;;;;;4931362;29;20086;-84
2023/01/23 12:05:42;;;;;;;7.20;5.93;;;3.50;99.90;;;;;;4957521;28;20167;-84
2023/01/23 12:08:36;;;;;;;7.50;6.30;;;3.50;99.90;;;;;;4947159;29;20475;-84
2023/01/23 12:11:15;;;;;;;7.20;5.35;;;3.60;99.90;;;;;;4978408;28;20051;-85
2023/01/23 12:13:54;;;;;;;6.45;4.63;;;3.80;99.90;;;;;;4980277;28;20055;-86
2023/01/23 12:16:27;;;;;;;6.68;5.40;;;3.90;99.90;;;;;;4963391;28;20055;-85
2023/01/23 12:19:11;;;;;;;5.75;5.15;;;3.90;99.90;;;;;;4949905;29;20055;-84
2023/01/23 12:21:54;;;;;;;8.80;6.75;;;4.00;99.90;;;;;;4916682;29;20442;-85
2023/01/23 12:24:30;;;;;;;8.35;6.03;;;4.00;99.90;;;;;;4930279;29;20055;-85
2023/01/23 12:27:01;;;;;;;7.00;5.95;;;4.10;99.90;;;;;;4946104;29;20051;-84
2023/01/23 12:30:02;;;;;;;7.75;6.88;;;4.10;99.90;;;;;;4979914;28;20108;-85
2023/01/23 12:32:56;;;;;;;10.38;8.50;;;4.20;99.90;;;;;;4948659;29;20063;-85
2023/01/23 12:35:23;;;;;;;11.20;8.07;;;4.10;99.90;;;;;;4946090;29;20049;-86
2023/01/23 12:37:55;;;;;;;14.38;10.10;;;4.30;99.90;;;;;;4947880;29;20051;-86
2023/01/23 12:40:40;;;;;;;11.37;9.57;;;4.30;99.90;;;;;;4946755;29;20060;-85
2023/01/23 12:43:45;;;;;;;12.60;9.57;;;4.30;99.90;;;;;;4915590;29;20294;-86
2023/01/23 12:46:25;;;;;;;12.13;9.70;;;4.40;99.90;;;;;;4933233;28;20055;-86
2023/01/23 12:49:04;;;;;;;11.98;9.63;;;4.40;99.90;;;;;;4932292;29;20099;-85
2023/01/23 12:51:37;;;;;;;13.43;10.88;;;4.30;99.90;;;;;;4946177;29;20070;-86
2023/01/23 12:54:09;;;;;;;15.55;11.18;;;4.20;99.90;;;;;;4962958;28;20106;-86
2023/01/23 12:56:36;;;;;;;16.75;13.73;;;4.20;99.90;;;;;;4946333;28;20055;-86
2023/01/23 12:59:40;;;;;;;17.60;14.25;;;4.10;99.90;;;;;;4933171;29;20051;-86
2023/01/23 13:02:15;;;;;;;16.80;12.90;;;4.10;99.90;;;;;;4932142;29;20043;-86
2023/01/23 13:05:12;;;;;;;17.08;13.73;;;4.10;99.90;;;;;;4951238;28;20075;-86
2023/01/23 13:07:54;;;;;;;17.13;12.95;;;4.20;99.90;;;;;;4964250;28;20102;-86
2023/01/23 13:13:31;;;;;;;14.02;11.52;;;4.20;99.90;;;;;;4975594;28;20059;-87
2023/01/23 13:16:12;;;;;;;11.23;9.88;;;4.20;99.90;;;;;;4966768;28;20151;-86
2023/01/23 13:27:30;;;;;;;8.45;6.25;;;4.70;99.90;;;;;;4943731;28;20048;-84